Time;durP1;ratioP1;P1;durP2;ratioP2;P2;SDS_P1;SDS_P2;PMS_P1;PMS_P2;Temp;Humidity;BMP_temperature;BMP_pressure;BME280_temperature;BME280_humidity;BME280_pressure;Samples;Min_cycle;Max_cycle;Signal;HPM_P1;HPM_P2
2023/06/03 00:01:24;;;;;;;6.00;2.00;;;14.50;99.90;;;;;;5131595;28;20072;-58
2023/06/03 00:03:50;;;;;;;6.28;2.10;;;14.50;99.90;;;;;;5131327;28;20035;-58
2023/06/03 00:06:16;;;;;;;4.35;1.60;;;14.50;99.90;;;;;;5112237;28;20167;-56
2023/06/03 00:08:44;;;;;;;5.20;1.73;;;14.50;99.90;;;;;;5131898;28;20526;-57
2023/06/03 00:11:11;;;;;;;3.67;1.75;;;14.50;99.80;;;;;;5131720;28;20169;-59
2023/06/03 00:13:38;;;;;;;5.15;1.80;;;14.40;99.50;;;;;;5131603;28;20172;-59
2023/06/03 00:16:04;;;;;;;5.38;1.67;;;14.40;99.40;;;;;;5131649;28;20031;-59
2023/06/03 00:18:30;;;;;;;5.38;1.70;;;14.40;99.40;;;;;;5131662;28;20107;-60
2023/06/03 00:20:56;;;;;;;8.00;1.80;;;14.30;99.20;;;;;;5131628;28;20394;-57
2023/06/03 00:23:22;;;;;;;5.60;1.50;;;14.30;99.20;;;;;;5131472;28;20043;-59
2023/06/03 00:25:49;;;;;;;5.10;1.77;;;14.30;99.10;;;;;;5131510;28;20042;-59
2023/06/03 00:28:15;;;;;;;4.72;1.60;;;14.20;99.00;;;;;;5131220;28;20043;-59
2023/06/03 00:30:41;;;;;;;4.45;1.58;;;14.20;98.80;;;;;;5131347;28;20039;-58
2023/06/03 00:33:07;;;;;;;4.13;1.70;;;14.20;98.70;;;;;;5131562;28;20588;-58
2023/06/03 00:35:33;;;;;;;3.15;1.48;;;14.10;98.60;;;;;;5130752;28;20100;-58
2023/06/03 00:37:59;;;;;;;3.83;1.38;;;14.10;98.50;;;;;;5131438;28;20042;-58
2023/06/03 00:40:25;;;;;;;4.57;1.50;;;14.10;98.50;;;;;;5133194;27;20035;-60
2023/06/03 00:42:51;;;;;;;3.92;1.45;;;14.00;98.30;;;;;;5135325;27;20039;-59
2023/06/03 00:45:17;;;;;;;5.05;1.80;;;14.00;98.20;;;;;;5134942;27;20390;-58
2023/06/03 00:47:43;;;;;;;7.18;1.65;;;14.00;98.00;;;;;;5134945;27;20071;-59
2023/06/03 00:50:11;;;;;;;4.72;1.42;;;13.90;98.00;;;;;;5132976;27;20032;-58
2023/06/03 00:52:38;;;;;;;3.28;1.30;;;13.90;98.00;;;;;;5134612;27;20035;-59
2023/06/03 00:55:04;;;;;;;3.17;1.30;;;13.90;97.90;;;;;;5134960;27;20103;-58
2023/06/03 00:57:30;;;;;;;6.00;1.40;;;13.80;97.70;;;;;;5134440;27;20031;-60
2023/06/03 00:59:56;;;;;;;3.95;1.20;;;13.80;97.50;;;;;;5133547;27;20031;-59
2023/06/03 01:02:23;;;;;;;4.75;1.58;;;13.70;97.50;;;;;;5134631;27;20050;-58
2023/06/03 01:04:50;;;;;;;3.80;1.33;;;13.70;97.50;;;;;;5134366;27;20507;-58
2023/06/03 01:08:01;;;;;;;5.82;1.40;;;13.60;97.40;;;;;;5134385;27;20117;-58
2023/06/03 01:10:56;;;;;;;3.92;1.25;;;13.60;97.10;;;;;;5054175;28;20044;-58
2023/06/03 01:13:40;;;;;;;4.40;1.10;;;13.50;97.20;;;;;;5070979;28;20044;-58
2023/06/03 01:16:08;;;;;;;3.63;1.15;;;13.40;97.50;;;;;;5124052;27;20055;-58
2023/06/03 01:18:36;;;;;;;4.47;1.02;;;13.40;97.50;;;;;;5116178;27;20039;-58
2023/06/03 01:21:02;;;;;;;5.60;1.30;;;13.40;97.40;;;;;;5116176;27;20034;-59
2023/06/03 01:23:33;;;;;;;3.30;1.40;;;13.40;97.40;;;;;;5134432;27;20089;-59
2023/06/03 01:26:00;;;;;;;3.00;1.20;;;13.30;97.20;;;;;;5134627;27;20087;-59
2023/06/03 01:28:28;;;;;;;5.45;1.17;;;13.30;97.10;;;;;;5133762;27;20050;-58
2023/06/03 01:30:58;;;;;;;4.82;1.27;;;13.30;97.20;;;;;;5134157;27;20043;-59
2023/06/03 01:33:26;;;;;;;4.40;1.25;;;13.20;97.00;;;;;;5134290;27;20043;-59
2023/06/03 01:35:54;;;;;;;4.03;1.05;;;13.20;97.00;;;;;;5131440;27;20050;-58
2023/06/03 01:38:22;;;;;;;4.95;1.20;;;13.10;97.00;;;;;;5134059;27;20084;-58
2023/06/03 01:40:48;;;;;;;3.80;1.00;;;13.10;96.80;;;;;;5133815;27;20125;-59
2023/06/03 01:43:14;;;;;;;3.25;1.20;;;13.00;96.80;;;;;;5115543;27;20035;-58
2023/06/03 01:45:40;;;;;;;2.35;1.00;;;13.00;96.70;;;;;;5133650;27;20035;-59
2023/06/03 01:48:06;;;;;;;3.42;1.00;;;13.00;96.60;;;;;;5133760;27;20046;-59
2023/06/03 01:50:31;;;;;;;4.45;1.20;;;13.00;96.60;;;;;;5133737;27;20171;-58
2023/06/03 01:52:57;;;;;;;3.40;1.10;;;13.00;96.40;;;;;;5132666;27;20054;-59
2023/06/03 01:55:23;;;;;;;4.53;1.10;;;12.90;96.50;;;;;;5133779;27;20204;-59
2023/06/03 01:57:49;;;;;;;3.53;1.30;;;12.90;96.40;;;;;;5133093;27;20058;-58
2023/06/03 02:00:16;;;;;;;3.45;1.25;;;12.90;96.30;;;;;;5133965;27;20035;-57
2023/06/03 02:02:42;;;;;;;3.97;1.20;;;12.80;96.20;;;;;;5133525;27;20494;-58
2023/06/03 02:05:08;;;;;;;3.65;1.30;;;12.80;96.20;;;;;;5132932;27;20043;-58
2023/06/03 02:07:34;;;;;;;3.58;1.15;;;12.70;96.30;;;;;;5133256;27;20107;-59
2023/06/03 02:10:00;;;;;;;3.17;0.90;;;12.70;96.20;;;;;;5133130;27;20031;-58
2023/06/03 02:12:26;;;;;;;2.45;1.15;;;12.60;96.30;;;;;;5133532;27;20031;-58
2023/06/03 02:14:53;;;;;;;3.47;1.30;;;12.60;96.60;;;;;;5133152;27;20077;-57
2023/06/03 02:17:28;;;;;;;3.95;1.10;;;12.60;96.30;;;;;;5113634;27;20039;-58
2023/06/03 02:19:55;;;;;;;5.68;1.30;;;12.50;96.30;;;;;;5130954;27;20058;-59
2023/06/03 02:22:21;;;;;;;4.93;0.63;;;12.50;96.30;;;;;;5133138;27;20053;-59
2023/06/03 02:24:47;;;;;;;3.63;1.10;;;12.40;96.30;;;;;;5133291;27;20065;-58
2023/06/03 02:27:20;;;;;;;3.50;1.15;;;12.40;96.20;;;;;;5132848;27;20057;-57
2023/06/03 02:29:50;;;;;;;4.57;1.20;;;12.40;96.30;;;;;;5112601;27;20043;-58
2023/06/03 02:32:16;;;;;;;3.70;1.00;;;12.40;96.10;;;;;;5132711;27;20043;-57
2023/06/03 02:34:46;;;;;;;2.08;0.77;;;12.30;96.10;;;;;;5130885;27;20039;-58
2023/06/03 02:37:13;;;;;;;2.17;1.02;;;12.20;96.20;;;;;;5132852;27;20110;-58
2023/06/03 02:39:38;;;;;;;2.75;1.08;;;12.20;96.20;;;;;;5132840;27;20043;-59
2023/06/03 02:42:05;;;;;;;7.00;1.10;;;12.20;96.00;;;;;;5132848;27;20087;-56
2023/06/03 02:44:30;;;;;;;3.40;1.20;;;12.10;96.10;;;;;;5114539;27;20058;-58
2023/06/03 02:46:56;;;;;;;3.08;0.93;;;12.10;96.20;;;;;;5132792;27;20489;-58
2023/06/03 02:49:22;;;;;;;4.57;0.90;;;12.00;96.20;;;;;;5132891;27;20549;-58
2023/06/03 02:51:47;;;;;;;4.57;0.73;;;11.90;96.20;;;;;;5132358;27;20880;-58
2023/06/03 02:54:13;;;;;;;2.70;0.80;;;11.90;96.20;;;;;;5132269;27;20046;-58
2023/06/03 02:56:39;;;;;;;3.60;1.30;;;11.90;96.20;;;;;;5132783;27;20038;-59
2023/06/03 02:59:05;;;;;;;1.55;0.68;;;11.80;96.10;;;;;;5131949;27;20042;-58
2023/06/03 03:01:31;;;;;;;1.85;0.90;;;11.80;96.10;;;;;;5132584;27;20031;-59
2023/06/03 03:03:57;;;;;;;3.58;1.10;;;11.70;96.20;;;;;;5132361;27;20034;-59
2023/06/03 03:06:24;;;;;;;5.18;1.13;;;11.70;96.20;;;;;;5130166;27;20031;-58
2023/06/03 03:08:53;;;;;;;6.18;1.10;;;11.70;96.10;;;;;;5131911;27;20436;-59
2023/06/03 03:11:19;;;;;;;2.35;1.00;;;11.70;96.00;;;;;;5131647;27;20035;-58
2023/06/03 03:13:45;;;;;;;2.55;1.00;;;11.70;96.10;;;;;;5132507;27;20039;-58
2023/06/03 03:16:12;;;;;;;2.40;0.65;;;11.60;96.00;;;;;;5113798;27;20023;-59
2023/06/03 03:18:38;;;;;;;3.55;1.00;;;11.60;96.10;;;;;;5132492;27;20117;-59
2023/06/03 03:21:05;;;;;;;2.10;0.88;;;11.60;96.30;;;;;;5132112;27;20039;-58
2023/06/03 03:23:31;;;;;;;2.60;0.70;;;11.60;96.20;;;;;;5132484;27;20075;-60
2023/06/03 03:25:58;;;;;;;3.53;1.00;;;11.60;96.20;;;;;;5131869;27;20033;-59
2023/06/03 03:28:25;;;;;;;3.33;0.80;;;11.50;96.20;;;;;;5113259;27;20115;-58
2023/06/03 03:30:50;;;;;;;3.25;0.80;;;11.50;96.20;;;;;;5131817;27;20035;-58
2023/06/03 03:33:20;;;;;;;4.50;1.05;;;11.50;96.30;;;;;;5132275;28;20110;-58
2023/06/03 03:35:48;;;;;;;3.75;1.10;;;11.40;96.30;;;;;;5131947;28;20075;-58
2023/06/03 03:38:14;;;;;;;5.38;1.20;;;11.40;96.30;;;;;;5112691;28;20043;-58
2023/06/03 03:40:40;;;;;;;3.72;0.82;;;11.40;96.60;;;;;;5113328;28;20042;-58
2023/06/03 03:43:15;;;;;;;4.57;1.27;;;11.40;96.40;;;;;;5132082;28;20039;-58
2023/06/03 03:45:40;;;;;;;2.72;1.13;;;11.40;96.40;;;;;;5112441;28;20035;-58
2023/06/03 03:48:08;;;;;;;6.60;1.00;;;11.40;96.30;;;;;;5131700;28;20046;-58
2023/06/03 03:50:40;;;;;;;4.22;1.10;;;11.40;96.30;;;;;;5131721;28;20032;-58
2023/06/03 03:53:08;;;;;;;2.95;0.90;;;11.40;96.40;;;;;;5112827;28;20047;-58
2023/06/03 03:55:42;;;;;;;5.53;1.13;;;11.30;96.50;;;;;;5131765;28;20043;-59
2023/06/03 03:58:26;;;;;;;3.13;0.70;;;11.30;96.60;;;;;;5131639;28;20027;-58
2023/06/03 04:00:59;;;;;;;1.88;1.00;;;11.30;96.60;;;;;;5132063;28;20501;-58
2023/06/03 04:03:25;;;;;;;3.35;1.20;;;11.30;96.60;;;;;;5131625;28;20450;-59
2023/06/03 04:05:53;;;;;;;2.92;0.85;;;11.30;96.60;;;;;;5131743;28;20039;-57
2023/06/03 04:08:39;;;;;;;2.30;0.75;;;11.30;96.50;;;;;;5131641;28;20072;-59
2023/06/03 04:11:07;;;;;;;2.35;0.98;;;11.30;96.70;;;;;;5131647;28;20505;-59
2023/06/03 04:13:36;;;;;;;2.40;0.75;;;11.30;96.60;;;;;;5131468;28;20470;-58
2023/06/03 04:16:22;;;;;;;4.47;0.93;;;11.30;96.70;;;;;;5133619;27;21747;-59
2023/06/03 04:18:48;;;;;;;3.03;1.10;;;11.30;96.80;;;;;;5134191;27;20039;-59
2023/06/03 04:21:19;;;;;;;2.47;0.80;;;11.40;96.70;;;;;;5134982;27;20038;-58
2023/06/03 04:23:45;;;;;;;2.47;0.70;;;11.40;96.80;;;;;;5134039;27;20055;-59
2023/06/03 04:26:15;;;;;;;4.63;0.90;;;11.30;96.80;;;;;;5135698;27;20047;-59
2023/06/03 04:28:41;;;;;;;5.00;1.00;;;11.30;96.80;;;;;;5134238;27;20070;-58
2023/06/03 04:31:07;;;;;;;4.00;0.85;;;11.40;96.90;;;;;;5116970;27;20043;-60
2023/06/03 04:33:33;;;;;;;4.25;1.10;;;11.40;96.80;;;;;;5116872;27;20039;-57
2023/06/03 04:35:59;;;;;;;3.83;1.10;;;11.40;96.90;;;;;;5135081;27;20043;-59
2023/06/03 04:38:25;;;;;;;3.50;1.25;;;11.40;96.90;;;;;;5135238;27;20106;-58
2023/06/03 04:40:51;;;;;;;3.08;1.10;;;11.50;97.00;;;;;;5135125;27;20047;-59
2023/06/03 04:43:22;;;;;;;2.72;1.08;;;11.50;97.00;;;;;;5134833;27;20047;-59
2023/06/03 04:45:49;;;;;;;2.45;0.93;;;11.50;97.00;;;;;;5135004;27;20039;-58
2023/06/03 04:48:16;;;;;;;4.40;0.80;;;11.50;96.90;;;;;;5135128;27;20047;-59
2023/06/03 04:50:44;;;;;;;3.60;1.23;;;11.50;97.00;;;;;;5135135;27;20609;-57
2023/06/03 04:53:13;;;;;;;3.03;1.00;;;12.00;97.20;;;;;;5134938;27;20047;-58
2023/06/03 04:55:44;;;;;;;4.20;0.85;;;11.60;97.10;;;;;;5135007;27;20519;-59
2023/06/03 04:58:11;;;;;;;2.97;1.10;;;11.60;97.10;;;;;;5134707;27;20039;-59
2023/06/03 05:00:40;;;;;;;3.55;1.20;;;11.60;97.20;;;;;;5135012;27;20040;-58
2023/06/03 05:03:08;;;;;;;3.65;1.35;;;11.70;97.20;;;;;;5134371;27;20035;-59
2023/06/03 05:05:35;;;;;;;3.78;1.10;;;11.70;97.30;;;;;;5134011;27;20082;-59
2023/06/03 05:08:01;;;;;;;3.00;1.17;;;11.70;97.30;;;;;;5113189;27;20050;-58
2023/06/03 05:10:27;;;;;;;4.80;1.40;;;11.70;97.40;;;;;;5134201;27;20478;-58
2023/06/03 05:12:53;;;;;;;3.35;1.10;;;11.70;97.80;;;;;;5134569;27;20110;-58
2023/06/03 05:15:19;;;;;;;4.07;0.95;;;11.80;97.50;;;;;;5134648;27;20035;-60
2023/06/03 05:17:45;;;;;;;3.78;1.40;;;11.80;97.40;;;;;;5134287;27;20035;-58
2023/06/03 05:20:11;;;;;;;2.80;1.10;;;11.80;97.60;;;;;;5134213;27;20071;-58
2023/06/03 05:22:37;;;;;;;3.83;1.50;;;11.80;97.50;;;;;;5114023;27;20046;-53
2023/06/03 05:25:05;;;;;;;3.38;1.17;;;11.90;97.50;;;;;;5134201;27;20042;-60
2023/06/03 05:27:30;;;;;;;3.75;1.13;;;11.90;97.50;;;;;;5133577;27;20430;-58
2023/06/03 05:29:56;;;;;;;3.42;0.90;;;11.90;97.60;;;;;;5098370;27;20122;-59
2023/06/03 05:32:22;;;;;;;3.25;1.23;;;11.90;97.70;;;;;;5125634;27;20031;-59
2023/06/03 05:34:48;;;;;;;3.88;1.20;;;12.00;97.90;;;;;;5115379;27;20031;-58
2023/06/03 05:37:13;;;;;;;4.35;1.10;;;12.00;97.90;;;;;;5112917;27;20033;-59
2023/06/03 05:39:39;;;;;;;3.60;0.90;;;12.00;97.90;;;;;;5125523;27;20146;-59
2023/06/03 05:42:06;;;;;;;3.22;1.23;;;12.10;97.90;;;;;;5125992;27;20042;-58
2023/06/03 05:44:31;;;;;;;3.50;1.20;;;12.10;98.00;;;;;;5125656;27;20122;-59
2023/06/03 05:46:57;;;;;;;3.70;0.80;;;12.20;98.00;;;;;;5126415;27;20106;-59
2023/06/03 05:49:22;;;;;;;3.50;1.20;;;12.30;98.10;;;;;;5125921;27;20042;-58
2023/06/03 05:51:48;;;;;;;3.03;1.13;;;12.30;98.10;;;;;;5125419;27;20420;-57
2023/06/03 05:54:14;;;;;;;3.67;1.30;;;12.40;98.10;;;;;;5125551;27;20490;-59
2023/06/03 05:56:40;;;;;;;5.90;1.15;;;12.40;98.20;;;;;;5125683;27;20035;-57
2023/06/03 05:59:05;;;;;;;3.15;1.00;;;12.50;98.10;;;;;;5125718;27;20028;-59
2023/06/03 06:01:33;;;;;;;2.28;0.93;;;12.50;98.10;;;;;;5126053;27;20050;-59
2023/06/03 06:03:59;;;;;;;2.28;0.88;;;12.60;98.00;;;;;;5131636;27;20096;-58
2023/06/03 06:06:25;;;;;;;3.05;1.10;;;12.60;98.00;;;;;;5133514;27;20660;-60
2023/06/03 06:08:51;;;;;;;3.72;1.00;;;12.70;98.10;;;;;;5131030;27;20039;-59
2023/06/03 06:11:17;;;;;;;3.63;1.00;;;12.80;98.00;;;;;;5131063;27;20067;-58
2023/06/03 06:13:42;;;;;;;3.70;1.17;;;12.80;98.00;;;;;;5132567;27;20509;-59
2023/06/03 06:16:08;;;;;;;5.32;1.05;;;12.90;98.00;;;;;;5133179;27;20043;-59
2023/06/03 06:18:34;;;;;;;3.60;1.13;;;12.90;98.20;;;;;;5114803;27;20038;-59
2023/06/03 06:21:00;;;;;;;5.78;1.38;;;13.00;97.90;;;;;;5132863;27;20062;-58
2023/06/03 06:23:26;;;;;;;5.25;1.40;;;13.10;97.80;;;;;;5133073;27;20038;-59
2023/06/03 06:25:54;;;;;;;5.55;1.17;;;13.20;97.70;;;;;;5133138;27;20455;-59
2023/06/03 06:28:28;;;;;;;6.30;1.30;;;13.20;97.90;;;;;;5132935;27;20035;-60
2023/06/03 06:30:55;;;;;;;5.68;1.45;;;13.30;97.50;;;;;;5133102;27;20046;-58
2023/06/03 06:33:21;;;;;;;3.40;1.15;;;13.40;97.30;;;;;;5133094;27;20119;-58
2023/06/03 06:35:47;;;;;;;4.20;0.93;;;13.40;97.40;;;;;;5132994;27;20096;-60
2023/06/03 06:38:13;;;;;;;7.75;1.00;;;13.50;97.50;;;;;;5132456;27;20075;-58
2023/06/03 06:40:40;;;;;;;6.95;1.30;;;13.50;97.20;;;;;;5132814;27;20042;-57
2023/06/03 06:43:12;;;;;;;5.53;1.30;;;13.60;97.10;;;;;;5114163;27;20050;-59
2023/06/03 06:45:37;;;;;;;4.45;1.17;;;13.70;97.00;;;;;;5132836;27;20042;-59
2023/06/03 06:48:11;;;;;;;4.70;0.98;;;13.80;97.00;;;;;;5132456;27;20080;-59
2023/06/03 06:50:54;;;;;;;4.13;0.90;;;13.80;96.70;;;;;;5132853;27;20035;-59
2023/06/03 06:53:22;;;;;;;4.57;1.10;;;13.90;96.70;;;;;;5132368;27;20100;-58
2023/06/03 06:55:53;;;;;;;6.05;1.08;;;14.00;96.60;;;;;;5132209;27;20043;-58
2023/06/03 06:58:20;;;;;;;5.70;1.15;;;14.10;96.70;;;;;;5132115;27;20151;-58
2023/06/03 07:00:47;;;;;;;12.70;1.90;;;14.20;96.60;;;;;;5132319;27;20043;-58
2023/06/03 07:03:17;;;;;;;5.90;1.10;;;14.20;96.50;;;;;;5132285;27;20122;-59
2023/06/03 07:05:44;;;;;;;8.32;1.15;;;14.30;96.30;;;;;;5132654;27;20486;-56
2023/06/03 07:08:10;;;;;;;3.35;0.80;;;14.30;96.10;;;;;;5132329;27;20363;-59
2023/06/03 07:10:35;;;;;;;8.63;1.27;;;14.40;96.00;;;;;;5113969;27;20096;-61
2023/06/03 07:13:02;;;;;;;2.25;0.80;;;14.50;95.80;;;;;;5132043;27;20111;-59
2023/06/03 07:15:29;;;;;;;2.85;0.88;;;14.60;95.80;;;;;;5132363;27;20114;-59
2023/06/03 07:17:56;;;;;;;2.53;0.85;;;14.70;95.50;;;;;;5113909;27;20088;-60
2023/06/03 07:20:31;;;;;;;2.67;0.95;;;14.70;95.30;;;;;;5113940;27;20038;-60
2023/06/03 07:22:57;;;;;;;2.53;0.60;;;14.80;95.20;;;;;;5131801;27;20071;-58
2023/06/03 07:25:34;;;;;;;5.85;1.25;;;14.90;95.00;;;;;;5132186;27;20035;-58
2023/06/03 07:28:03;;;;;;;6.53;1.98;;;15.00;94.80;;;;;;5113320;27;20517;-59
2023/06/03 07:30:29;;;;;;;3.65;0.80;;;15.10;94.70;;;;;;5131667;27;20110;-59
2023/06/03 07:32:58;;;;;;;3.88;1.10;;;15.10;94.40;;;;;;5132149;28;20031;-59
2023/06/03 07:35:24;;;;;;;5.43;0.98;;;15.20;94.30;;;;;;5132008;28;20043;-61
2023/06/03 07:37:50;;;;;;;3.15;1.00;;;15.30;94.50;;;;;;5113273;28;20057;-59
2023/06/03 07:40:16;;;;;;;2.90;0.90;;;15.40;94.40;;;;;;5132255;28;20035;-60
2023/06/03 07:42:47;;;;;;;5.50;0.90;;;15.50;94.00;;;;;;5131734;28;20043;-60
2023/06/03 07:45:13;;;;;;;9.82;1.45;;;15.50;94.10;;;;;;5132299;28;20043;-59
2023/06/03 07:47:40;;;;;;;6.47;1.08;;;15.50;94.10;;;;;;5132026;28;20526;-59
2023/06/03 07:50:26;;;;;;;4.07;1.05;;;15.60;94.10;;;;;;5116847;27;20043;-58
2023/06/03 07:53:00;;;;;;;3.15;0.80;;;15.70;93.80;;;;;;5135210;27;20134;-58
2023/06/03 07:55:43;;;;;;;3.85;1.10;;;15.70;94.00;;;;;;5136226;27;20046;-58
2023/06/03 07:58:10;;;;;;;2.60;0.95;;;15.50;93.80;;;;;;5135644;27;20039;-58
2023/06/03 08:00:38;;;;;;;3.17;0.90;;;15.90;93.90;;;;;;5135931;27;20039;-60
2023/06/03 08:03:06;;;;;;;4.10;1.17;;;16.00;93.90;;;;;;5135835;27;20438;-59
2023/06/03 08:05:36;;;;;;;2.50;0.82;;;16.00;94.00;;;;;;5136237;27;20046;-59
2023/06/03 08:08:08;;;;;;;5.80;1.00;;;16.10;93.90;;;;;;5135544;27;20039;-59
2023/06/03 08:10:35;;;;;;;3.28;1.23;;;16.20;93.70;;;;;;5135908;27;20034;-58
2023/06/03 08:13:02;;;;;;;2.97;0.93;;;16.30;93.50;;;;;;5135738;27;20043;-59
2023/06/03 08:15:31;;;;;;;3.10;0.88;;;16.50;93.40;;;;;;5136022;27;20482;-60
2023/06/03 08:17:57;;;;;;;4.60;1.05;;;16.60;93.30;;;;;;5135381;27;20046;-59
2023/06/03 08:20:28;;;;;;;2.88;0.90;;;16.70;93.10;;;;;;5099998;27;20095;-59
2023/06/03 08:22:55;;;;;;;4.47;0.90;;;16.80;93.00;;;;;;5135316;27;20035;-60
2023/06/03 08:25:21;;;;;;;4.63;1.42;;;16.80;93.10;;;;;;5135486;27;20039;-58
2023/06/03 08:27:47;;;;;;;3.20;1.00;;;16.80;93.10;;;;;;5135039;27;20039;-59
2023/06/03 08:30:14;;;;;;;2.97;1.00;;;16.80;92.90;;;;;;5134661;27;20039;-59
2023/06/03 08:32:41;;;;;;;3.35;1.10;;;16.80;92.60;;;;;;5135556;27;20382;-59
2023/06/03 08:35:08;;;;;;;4.38;1.00;;;16.90;92.60;;;;;;5135302;27;20035;-59
2023/06/03 08:37:34;;;;;;;3.85;0.80;;;17.00;93.00;;;;;;5135474;27;20367;-59
2023/06/03 08:40:01;;;;;;;3.45;0.90;;;17.10;92.90;;;;;;5135407;27;20038;-60
2023/06/03 08:42:36;;;;;;;2.03;0.80;;;17.30;93.20;;;;;;5116594;27;20066;-58
2023/06/03 08:45:09;;;;;;;4.78;1.10;;;17.40;92.40;;;;;;5135345;27;20099;-60
2023/06/03 08:47:44;;;;;;;3.38;0.88;;;17.40;92.30;;;;;;5116632;27;20035;-60
2023/06/03 08:50:11;;;;;;;2.53;0.80;;;17.40;91.90;;;;;;5135294;27;20047;-59
2023/06/03 08:52:42;;;;;;;3.83;1.02;;;17.30;91.60;;;;;;5135145;27;20138;-59
2023/06/03 08:55:11;;;;;;;4.00;1.00;;;17.10;91.30;;;;;;5133888;27;20049;-58
2023/06/03 08:58:21;;;;;;;2.80;0.80;;;17.00;91.10;;;;;;5135009;27;20066;-59
2023/06/03 09:00:51;;;;;;;4.72;1.20;;;16.90;90.90;;;;;;5134484;27;20042;-59
2023/06/03 09:03:17;;;;;;;5.93;1.00;;;16.80;90.90;;;;;;5134753;27;20402;-58
2023/06/03 09:05:43;;;;;;;4.28;1.02;;;16.70;91.00;;;;;;5134777;27;20039;-58
2023/06/03 09:08:11;;;;;;;5.07;1.10;;;16.60;91.00;;;;;;5116154;27;20059;-57
2023/06/03 09:10:37;;;;;;;3.75;0.95;;;16.60;91.10;;;;;;5134733;27;20043;-59
2023/06/03 09:13:03;;;;;;;3.80;1.25;;;16.70;90.90;;;;;;5134344;27;20055;-59
2023/06/03 09:15:30;;;;;;;2.70;0.70;;;16.80;90.80;;;;;;5134788;27;20039;-60
2023/06/03 09:17:56;;;;;;;2.38;0.60;;;17.00;91.10;;;;;;5134296;27;20031;-60
2023/06/03 09:20:23;;;;;;;2.25;0.60;;;17.30;91.00;;;;;;5134642;27;20050;-58
2023/06/03 09:22:50;;;;;;;1.98;0.50;;;17.60;90.80;;;;;;5134170;27;20045;-59
2023/06/03 09:25:16;;;;;;;3.42;0.70;;;17.90;90.20;;;;;;5134718;27;20043;-59
2023/06/03 09:27:41;;;;;;;1.92;0.60;;;18.20;89.60;;;;;;5134324;27;20096;-60
2023/06/03 09:30:08;;;;;;;3.88;0.77;;;18.50;89.20;;;;;;5115407;27;20031;-59
2023/06/03 09:32:36;;;;;;;3.88;0.70;;;18.60;88.20;;;;;;5134250;27;20062;-60
2023/06/03 09:35:05;;;;;;;4.45;1.30;;;18.70;87.20;;;;;;5133815;27;20050;-60
2023/06/03 09:37:34;;;;;;;3.92;0.80;;;18.80;87.40;;;;;;5134343;27;20027;-59
2023/06/03 09:40:02;;;;;;;2.17;0.68;;;19.00;86.30;;;;;;5115814;27;20047;-59
2023/06/03 09:42:44;;;;;;;2.22;0.80;;;19.10;86.40;;;;;;5133992;27;20027;-59
2023/06/03 09:45:33;;;;;;;3.08;0.75;;;19.20;85.80;;;;;;5134134;27;20088;-57
2023/06/03 09:48:00;;;;;;;3.88;0.70;;;19.30;84.30;;;;;;5134051;27;20027;-58
2023/06/03 09:50:30;;;;;;;2.72;0.60;;;19.40;84.30;;;;;;5115248;27;20047;-57
2023/06/03 09:52:57;;;;;;;2.03;0.63;;;19.40;83.70;;;;;;5133359;27;20038;-58
2023/06/03 09:55:34;;;;;;;2.67;0.57;;;19.40;83.20;;;;;;5133627;27;20051;-57
2023/06/03 09:58:08;;;;;;;3.35;0.50;;;19.50;83.20;;;;;;5133913;27;20058;-57
2023/06/03 10:00:48;;;;;;;4.53;0.73;;;19.60;83.30;;;;;;5133237;27;20027;-58
2023/06/03 10:03:14;;;;;;;1.15;0.47;;;19.60;83.70;;;;;;5133646;27;20486;-59
2023/06/03 10:05:41;;;;;;;4.60;0.70;;;19.60;82.20;;;;;;5133705;27;20131;-58
2023/06/03 10:08:07;;;;;;;2.67;0.60;;;19.60;82.30;;;;;;5133589;27;20500;-59
2023/06/03 10:10:34;;;;;;;3.92;0.68;;;19.70;82.10;;;;;;5133055;27;20043;-58
2023/06/03 10:13:20;;;;;;;3.50;0.70;;;19.80;83.00;;;;;;5132322;27;20031;-58
2023/06/03 10:15:46;;;;;;;3.40;0.80;;;20.00;82.40;;;;;;5133529;27;20083;-57
2023/06/03 10:18:11;;;;;;;2.90;0.68;;;20.10;82.60;;;;;;5133070;27;20035;-58
2023/06/03 10:20:39;;;;;;;3.15;0.80;;;20.10;82.20;;;;;;5133050;27;20050;-59
2023/06/03 10:23:10;;;;;;;2.40;0.52;;;20.20;82.20;;;;;;5097570;27;20046;-58
2023/06/03 10:25:45;;;;;;;5.30;0.90;;;20.20;81.30;;;;;;5098088;27;20057;-58
2023/06/03 10:28:12;;;;;;;2.42;0.60;;;20.30;81.10;;;;;;5133163;27;20118;-58
2023/06/03 10:30:42;;;;;;;2.75;0.70;;;20.40;80.80;;;;;;5133255;27;20143;-57
2023/06/03 10:33:09;;;;;;;2.10;0.60;;;20.40;81.60;;;;;;5133052;27;20134;-57
2023/06/03 10:35:37;;;;;;;1.73;0.60;;;20.40;81.50;;;;;;5132855;27;20034;-58
2023/06/03 10:38:07;;;;;;;2.10;0.60;;;20.40;81.00;;;;;;5132804;27;20096;-58
2023/06/03 10:40:33;;;;;;;4.03;0.70;;;20.40;80.10;;;;;;5133178;27;20096;-59
2023/06/03 10:42:59;;;;;;;2.80;0.70;;;20.50;80.00;;;;;;5132535;27;20047;-57
2023/06/03 10:45:27;;;;;;;3.58;0.68;;;20.60;80.50;;;;;;5133113;27;20046;-58
2023/06/03 10:48:00;;;;;;;3.92;0.60;;;20.70;81.00;;;;;;5113880;27;20051;-58
2023/06/03 10:51:00;;;;;;;2.97;0.82;;;20.80;81.40;;;;;;5132636;27;20081;-58
2023/06/03 10:53:47;;;;;;;2.03;0.50;;;20.90;80.80;;;;;;5113831;27;20059;-59
2023/06/03 10:56:20;;;;;;;1.98;0.70;;;20.90;79.40;;;;;;5132541;27;20041;-59
2023/06/03 10:58:50;;;;;;;1.95;0.60;;;20.90;80.40;;;;;;5113762;27;20039;-59
2023/06/03 11:01:16;;;;;;;2.08;0.65;;;20.90;79.50;;;;;;5132747;27;20119;-58
2023/06/03 11:03:57;;;;;;;2.97;0.90;;;20.90;79.70;;;;;;5132624;27;20198;-58
2023/06/03 11:06:25;;;;;;;2.70;0.85;;;21.00;78.70;;;;;;5132492;27;20043;-58
2023/06/03 11:09:05;;;;;;;2.70;0.63;;;20.90;79.70;;;;;;5132382;27;20057;-59
2023/06/03 11:11:52;;;;;;;2.80;0.60;;;21.10;79.70;;;;;;5132568;27;20031;-58
2023/06/03 11:14:27;;;;;;;3.53;0.70;;;21.20;79.10;;;;;;5132736;27;20043;-59
2023/06/03 11:16:59;;;;;;;1.30;0.50;;;21.40;79.20;;;;;;5132395;27;20039;-59
2023/06/03 11:19:46;;;;;;;4.13;1.10;;;21.50;78.80;;;;;;5132197;27;20067;-58
2023/06/03 11:22:13;;;;;;;2.25;0.70;;;21.60;79.00;;;;;;5114013;28;20247;-59
2023/06/03 11:24:39;;;;;;;3.55;0.73;;;21.70;79.70;;;;;;5132251;27;20482;-58
2023/06/03 11:27:11;;;;;;;2.85;0.70;;;21.80;79.90;;;;;;5113062;27;20071;-59
2023/06/03 11:29:51;;;;;;;4.65;0.75;;;22.00;78.20;;;;;;5131160;27;20508;-58
2023/06/03 11:32:27;;;;;;;2.80;0.80;;;22.10;78.30;;;;;;5132104;27;20470;-59
2023/06/03 11:35:04;;;;;;;2.75;0.80;;;22.20;78.70;;;;;;5132149;27;20058;-58
2023/06/03 11:37:45;;;;;;;2.05;0.65;;;22.30;77.20;;;;;;5113492;28;20038;-59
2023/06/03 11:40:19;;;;;;;3.40;0.63;;;22.50;78.90;;;;;;5132382;28;20463;-59
2023/06/03 11:42:48;;;;;;;;;;;22.60;78.30;;;;;;5131951;28;20039;-58
2023/06/03 11:45:26;;;;;;;4.63;1.17;;;22.60;77.40;;;;;;5132116;28;19964;-57
2023/06/03 11:47:52;;;;;;;2.85;0.68;;;22.70;78.70;;;;;;5131691;28;20043;-59
2023/06/03 11:50:19;;;;;;;3.40;0.52;;;22.80;78.60;;;;;;5132143;28;20055;-58
2023/06/03 11:52:45;;;;;;;4.40;0.68;;;22.80;78.30;;;;;;5113194;28;20051;-58
2023/06/03 11:55:11;;;;;;;3.10;0.70;;;22.90;76.70;;;;;;5131672;28;20040;-59
2023/06/03 11:57:39;;;;;;;3.53;0.73;;;23.00;75.60;;;;;;5131777;28;20076;-58
2023/06/03 12:00:10;;;;;;;2.67;0.80;;;23.00;75.60;;;;;;5131347;28;20063;-58
2023/06/03 12:02:46;;;;;;;3.22;0.70;;;23.10;76.30;;;;;;5131953;28;20039;-58
2023/06/03 12:05:15;;;;;;;1.75;0.57;;;23.20;75.40;;;;;;5132035;28;20529;-60
2023/06/03 12:07:55;;;;;;;2.55;0.60;;;23.40;75.00;;;;;;5131710;28;20035;-58
2023/06/03 12:10:21;;;;;;;3.03;0.60;;;23.50;72.90;;;;;;5131709;28;20073;-58
2023/06/03 12:12:54;;;;;;;1.98;0.60;;;23.60;74.20;;;;;;5131611;28;20035;-59
2023/06/03 12:15:20;;;;;;;4.78;0.73;;;23.60;73.70;;;;;;5131697;28;20028;-59
2023/06/03 12:17:47;;;;;;;5.97;1.17;;;23.70;73.60;;;;;;5131356;28;20126;-59
2023/06/03 12:20:26;;;;;;;5.30;0.73;;;23.70;73.30;;;;;;5131667;28;20084;-58
2023/06/03 12:23:05;;;;;;;2.70;0.75;;;23.80;71.80;;;;;;5131406;28;20042;-58
2023/06/03 12:25:35;;;;;;;4.10;0.63;;;23.80;71.10;;;;;;5131257;28;20039;-59
2023/06/03 12:28:22;;;;;;;7.43;0.77;;;23.80;72.20;;;;;;5131615;28;20046;-59
2023/06/03 12:30:49;;;;;;;2.97;0.70;;;24.00;72.70;;;;;;5131642;28;20047;-59
2023/06/03 12:33:15;;;;;;;2.65;0.70;;;24.10;73.30;;;;;;5131177;28;20042;-59
2023/06/03 12:35:55;;;;;;;2.60;0.57;;;24.20;73.40;;;;;;5131643;27;20035;-58
2023/06/03 12:38:21;;;;;;;3.75;0.73;;;24.30;72.50;;;;;;5135108;27;20046;-58
2023/06/03 12:40:47;;;;;;;4.97;0.75;;;24.40;72.50;;;;;;5135369;27;20042;-59
2023/06/03 12:43:22;;;;;;;3.45;0.70;;;24.40;72.60;;;;;;5135133;27;20029;-59
2023/06/03 12:45:47;;;;;;;1.90;0.50;;;24.60;72.20;;;;;;5135391;27;20047;-59
2023/06/03 12:48:30;;;;;;;2.70;0.55;;;24.70;72.40;;;;;;5116545;27;20046;-58
2023/06/03 12:50:56;;;;;;;4.47;0.75;;;24.80;72.40;;;;;;5135157;27;20035;-58
2023/06/03 12:53:22;;;;;;;2.55;0.80;;;24.70;71.50;;;;;;5134399;27;20069;-58
2023/06/03 12:55:48;;;;;;;2.05;0.60;;;24.50;71.70;;;;;;5135296;27;20055;-59
2023/06/03 12:58:14;;;;;;;3.15;0.90;;;24.50;72.20;;;;;;5134592;27;20100;-58